Terminal Aerodrome Forecast
Issued by NWS

Home | Current Version | Previous Version | Graphics & Text | Print | Product List | Glossary On
Versions: 1 2 3 4 5 6 7 8 9 10 11 12 13 14 15 16 17 18 19 20 21 22 23 24 25
000
FTUS43 KICT 291959 AAA
TAFSLN
TAF AMD
KSLN 291959Z 2920/3018 35010KT P6SM BKN025
     FM292200 01008KT P6SM SCT025
     FM300200 VRB05KT P6SM BKN035
     FM300900 01006KT 3SM BR BKN015
     FM301400 VRB05KT 4SM BR SCT015 BKN030
     FM301600 VRB05KT P6SM SKC=

USA.gov is the U.S. government's official web portal to all federal, state and local government web resources and services.